Time;durP1;ratioP1;P1;durP2;ratioP2;P2;SDS_P1;SDS_P2;PMS_P1;PMS_P2;Temp;Humidity;BMP_temperature;BMP_pressure;BME280_temperature;BME280_humidity;BME280_pressure;Samples;Min_cycle;Max_cycle;Signal;HPM_P1;HPM_P2
2022/06/18 00:01:33;;;;;;;1.20;1.10;;;;;;;18.11;55.29;101151.19;4955359;28;20805;-84
2022/06/18 00:04:12;;;;;;;2.00;1.13;;;;;;;18.08;55.55;101146.00;4965361;28;20048;-83
2022/06/18 00:06:55;;;;;;;0.90;0.80;;;;;;;18.05;55.88;101145.22;4950098;28;20051;-83
2022/06/18 00:09:41;;;;;;;1.17;1.08;;;;;;;18.00;55.68;101142.72;4964180;28;20712;-83
2022/06/18 00:15:25;;;;;;;2.30;1.25;;;;;;;17.93;56.46;101141.19;4971463;28;20039;-85
2022/06/18 00:17:53;;;;;;;1.02;1.02;;;;;;;17.88;56.50;101132.50;4972334;28;20173;-85
2022/06/18 00:20:23;;;;;;;4.75;1.02;;;;;;;17.85;56.63;101131.66;4955942;28;20086;-85
2022/06/18 00:22:58;;;;;;;1.02;0.90;;;;;;;17.81;57.19;101121.22;4935958;28;20996;-83
2022/06/18 00:25:37;;;;;;;2.38;0.90;;;;;;;17.80;57.33;101125.63;4967128;28;20057;-82
2022/06/18 00:28:12;;;;;;;1.30;1.30;;;;;;;17.77;57.48;101116.91;4966305;28;20051;-84
2022/06/18 00:30:39;;;;;;;2.05;1.40;;;;;;;17.76;57.64;101120.50;4944972;28;20050;-84
2022/06/18 00:33:09;;;;;;;3.60;1.27;;;;;;;17.74;57.59;101114.38;4952427;28;20054;-85
2022/06/18 00:35:36;;;;;;;7.05;1.48;;;;;;;17.74;57.85;101111.72;4967941;28;20043;-85
2022/06/18 00:38:12;;;;;;;1.25;1.15;;;;;;;17.71;57.94;101099.44;4951527;28;20150;-84
2022/06/18 00:40:43;;;;;;;1.20;1.10;;;;;;;17.67;58.00;101105.75;4966918;28;20130;-83
2022/06/18 00:43:25;;;;;;;1.00;1.00;;;;;;;17.63;58.31;101107.63;4963558;28;20122;-84
2022/06/18 00:45:58;;;;;;;1.95;1.27;;;;;;;17.61;58.38;101111.25;4970520;28;20357;-84
2022/06/18 00:48:39;;;;;;;4.05;1.70;;;;;;;17.56;58.55;101099.94;4955738;28;20058;-83
2022/06/18 00:51:48;;;;;;;1.38;1.30;;;;;;;17.55;59.27;101092.91;4968196;28;20054;-84
2022/06/18 00:54:24;;;;;;;1.77;1.35;;;;;;;17.52;59.08;101093.84;4965510;28;20051;-85
2022/06/18 00:57:13;;;;;;;2.30;2.05;;;;;;;17.48;59.51;101092.22;4966156;28;20046;-84
2022/06/18 00:59:50;;;;;;;1.20;1.20;;;;;;;17.46;59.19;101086.13;4966305;28;20046;-84
2022/06/18 01:02:31;;;;;;;2.25;1.40;;;;;;;17.45;59.54;101087.88;4949413;28;20061;-83
2022/06/18 01:04:58;;;;;;;2.05;1.33;;;;;;;17.44;59.44;101091.47;4949616;28;20449;-85
2022/06/18 01:07:32;;;;;;;1.45;1.40;;;;;;;17.44;59.80;101080.00;4965821;28;20082;-84
2022/06/18 01:10:02;;;;;;;2.08;1.42;;;;;;;17.40;59.81;101079.22;4964493;28;20055;-83
2022/06/18 01:12:30;;;;;;;0.98;0.98;;;;;;;17.37;59.87;101081.97;4929391;28;20051;-83
2022/06/18 01:15:11;;;;;;;1.98;1.85;;;;;;;17.34;60.07;101077.63;4952068;28;20057;-82
2022/06/18 01:17:38;;;;;;;1.33;1.27;;;;;;;17.31;60.22;101076.84;4965455;28;20156;-85
2022/06/18 01:20:10;;;;;;;1.13;1.13;;;;;;;17.27;60.31;101069.94;4949863;28;20166;-84
2022/06/18 01:23:14;;;;;;;2.80;1.50;;;;;;;17.25;60.61;101072.63;4930197;28;20047;-84
2022/06/18 01:25:41;;;;;;;2.97;2.40;;;;;;;17.22;60.50;101064.75;4961129;28;20166;-85
2022/06/18 01:28:09;;;;;;;2.28;2.17;;;;;;;17.19;60.43;101065.75;4959425;28;20046;-82
2022/06/18 01:30:39;;;;;;;2.13;2.03;;;;;;;17.18;60.70;101055.19;4951090;28;20555;-83
2022/06/18 01:33:13;;;;;;;3.75;1.88;;;;;;;17.16;60.87;101049.97;4944977;28;20046;-84
2022/06/18 01:35:51;;;;;;;1.20;1.20;;;;;;;17.17;60.60;101048.19;4952746;28;20059;-85
2022/06/18 01:38:20;;;;;;;1.17;1.17;;;;;;;17.16;60.91;101044.66;4941666;28;20125;-84
2022/06/18 01:41:49;;;;;;;3.13;1.63;;;;;;;17.15;61.12;101042.06;4937003;28;20055;-85
2022/06/18 01:43:52;;;;;;;2.67;1.60;;;;;;;17.13;61.29;101041.25;4956830;28;20410;-84
2022/06/18 01:46:19;;;;;;;1.52;1.23;;;;;;;17.09;61.25;101043.13;4965658;28;20154;-84
2022/06/18 01:48:49;;;;;;;1.63;1.52;;;;;;;17.07;61.38;101044.94;4950665;28;20046;-85
2022/06/18 01:51:27;;;;;;;2.22;1.20;;;;;;;17.03;61.73;101038.88;4949462;28;20291;-84
2022/06/18 01:54:05;;;;;;;2.67;2.47;;;;;;;17.00;61.93;101033.69;4911304;28;20058;-85
2022/06/18 01:56:45;;;;;;;2.10;1.05;;;;;;;16.99;62.01;101031.94;4962902;28;20046;-84
2022/06/18 01:59:26;;;;;;;1.02;1.02;;;;;;;16.98;62.23;101026.72;4964845;28;20045;-84
2022/06/18 02:01:56;;;;;;;2.15;1.30;;;;;;;16.96;62.07;101026.75;4950474;28;20047;-85
2022/06/18 02:04:25;;;;;;;1.38;1.33;;;;;;;16.96;62.24;101026.75;4959864;28;20054;-84
2022/06/18 02:06:52;;;;;;;1.40;1.30;;;;;;;16.95;62.21;101021.53;4963037;28;20045;-82
2022/06/18 02:09:50;;;;;;;0.95;0.90;;;;;;;16.92;62.61;101016.31;4958949;28;20057;-85
2022/06/18 02:12:38;;;;;;;1.55;1.30;;;;;;;16.90;62.77;101012.81;4946663;28;20042;-85
2022/06/18 02:15:14;;;;;;;1.80;1.67;;;;;;;16.87;62.56;101004.06;4966379;28;20050;-83
2022/06/18 02:17:42;;;;;;;2.95;1.30;;;;;;;16.87;62.52;101009.34;4949430;28;20142;-84
2022/06/18 02:20:15;;;;;;;1.45;1.35;;;;;;;16.89;63.04;101001.38;4949372;28;20053;-84
2022/06/18 02:22:46;;;;;;;1.52;1.45;;;;;;;16.91;63.01;100998.69;4959919;28;20325;-84
2022/06/18 02:25:16;;;;;;;1.77;1.55;;;;;;;16.89;63.01;101000.50;4961820;28;20046;-85
2022/06/18 02:27:44;;;;;;;1.83;1.42;;;;;;;16.87;63.21;100998.78;4962135;28;20067;-84
2022/06/18 02:30:25;;;;;;;1.65;1.55;;;;;;;16.90;63.15;100996.97;4945854;28;20509;-84
2022/06/18 02:33:03;;;;;;;1.60;1.50;;;;;;;16.89;63.32;100997.88;4940398;28;20526;-83
2022/06/18 02:35:36;;;;;;;0.93;0.93;;;;;;;16.87;63.37;100988.19;4944533;28;20049;-84
2022/06/18 02:38:17;;;;;;;1.65;1.20;;;;;;;16.85;63.82;100991.78;4963455;28;20074;-84
2022/06/18 02:40:44;;;;;;;3.90;2.05;;;;;;;16.82;63.67;100983.97;4950635;28;20059;-85
2022/06/18 02:43:15;;;;;;;1.67;1.65;;;;;;;16.81;63.77;100983.09;4930528;28;20752;-85
2022/06/18 02:45:45;;;;;;;2.80;1.50;;;;;;;16.80;63.94;100986.63;4972381;28;20066;-84
2022/06/18 02:48:12;;;;;;;2.10;1.42;;;;;;;16.78;64.02;100983.19;4967625;28;20050;-85
2022/06/18 02:50:43;;;;;;;1.50;1.48;;;;;;;16.76;64.25;100985.00;4953063;28;20075;-83
2022/06/18 02:53:13;;;;;;;1.25;1.20;;;;;;;16.75;64.18;100980.66;4964738;28;20043;-83
2022/06/18 02:55:50;;;;;;;1.45;1.20;;;;;;;16.74;64.38;100984.19;4964703;28;20155;-84
2022/06/18 02:58:22;;;;;;;1.48;1.00;;;;;;;16.73;64.57;100990.38;4953755;28;20053;-86
2022/06/18 03:00:54;;;;;;;1.50;1.40;;;;;;;16.71;64.62;100986.91;4971319;28;20047;-83
2022/06/18 03:03:25;;;;;;;2.20;1.10;;;;;;;16.70;64.63;100987.84;4961885;28;20039;-83
2022/06/18 03:06:04;;;;;;;1.77;1.38;;;;;;;16.69;64.77;100984.31;4939089;28;20126;-84
2022/06/18 03:08:32;;;;;;;1.10;1.00;;;;;;;16.70;64.67;100987.84;4936074;28;20046;-83
2022/06/18 03:13:46;;;;;;;2.17;1.58;;;;;;;16.74;64.71;100991.22;4951003;28;20035;-84
2022/06/18 03:16:18;;;;;;;1.25;1.17;;;;;;;16.75;64.52;100985.03;4969357;28;20177;-84
2022/06/18 03:18:47;;;;;;;2.83;1.20;;;;;;;16.77;64.62;100975.31;4958894;28;20054;-83
2022/06/18 03:21:41;;;;;;;1.63;1.23;;;;;;;16.79;64.77;100977.00;4980788;28;20142;-85
2022/06/18 03:24:09;;;;;;;3.75;1.30;;;;;;;16.80;64.63;100983.13;4982891;28;20081;-83
2022/06/18 03:26:36;;;;;;;1.20;1.20;;;;;;;16.82;64.64;100976.88;4972585;28;20087;-82
2022/06/18 03:29:05;;;;;;;2.88;1.60;;;;;;;16.82;64.66;100979.53;4964133;28;20629;-84
2022/06/18 03:31:32;;;;;;;1.98;1.58;;;;;;;16.85;64.63;100976.78;4950256;28;20051;-84
2022/06/18 03:33:59;;;;;;;2.10;1.83;;;;;;;16.85;64.48;100976.78;4958158;28;20073;-84
2022/06/18 03:36:26;;;;;;;4.97;1.73;;;;;;;16.87;64.54;100980.25;4973727;28;20043;-85
2022/06/18 03:38:53;;;;;;;1.75;1.17;;;;;;;16.91;64.43;100974.91;4987214;28;20031;-84
2022/06/18 03:41:23;;;;;;;3.42;2.97;;;;;;;16.93;64.48;100975.72;4972151;28;20047;-84
2022/06/18 03:43:52;;;;;;;1.35;1.30;;;;;;;16.94;64.54;100973.03;4969450;28;20069;-84
2022/06/18 03:46:19;;;;;;;1.50;1.40;;;;;;;16.98;64.39;100972.03;4987826;28;20039;-86
2022/06/18 03:48:54;;;;;;;2.72;1.20;;;;;;;17.01;64.51;100973.72;4968903;28;20038;-85
2022/06/18 03:51:22;;;;;;;1.45;1.35;;;;;;;17.03;64.37;100969.25;4952851;28;20066;-85
2022/06/18 03:53:50;;;;;;;1.40;1.30;;;;;;;17.08;64.16;100974.38;4980289;28;20043;-85
2022/06/18 03:56:24;;;;;;;6.78;1.45;;;;;;;17.12;63.89;100968.97;4980323;28;20054;-85
2022/06/18 03:58:52;;;;;;;1.30;1.20;;;;;;;17.16;63.98;100973.25;4981687;28;20035;-84
2022/06/18 04:01:31;;;;;;;1.33;1.23;;;;;;;17.22;63.81;100969.53;4962269;28;20035;-84
2022/06/18 04:03:57;;;;;;;2.85;1.45;;;;;;;17.28;63.65;100966.69;4979461;28;20041;-85
2022/06/18 04:06:25;;;;;;;1.10;1.10;;;;;;;17.33;63.44;100966.56;4986027;28;20047;-85
2022/06/18 04:08:52;;;;;;;1.70;1.38;;;;;;;17.40;63.23;100972.50;4962110;28;20592;-85
2022/06/18 04:11:21;;;;;;;2.28;1.33;;;;;;;17.48;63.02;100968.72;4988010;28;20058;-84
2022/06/18 04:13:48;;;;;;;2.08;1.48;;;;;;;17.57;62.82;100970.16;4986225;28;20034;-85
2022/06/18 04:16:15;;;;;;;1.80;1.63;;;;;;;17.75;62.15;100968.69;4988380;28;20043;-85
2022/06/18 04:18:43;;;;;;;1.77;1.48;;;;;;;17.97;61.63;100979.44;4983744;28;20039;-86
2022/06/18 04:21:10;;;;;;;1.75;1.65;;;;;;;18.15;60.80;100979.75;4982099;28;20331;-85
2022/06/18 04:23:38;;;;;;;1.77;1.40;;;;;;;18.23;60.55;100976.81;4969405;28;20395;-84
2022/06/18 04:26:05;;;;;;;2.15;1.60;;;;;;;18.27;60.68;100975.78;4970304;28;20353;-84
2022/06/18 04:28:32;;;;;;;1.55;1.55;;;;;;;18.31;60.50;100978.25;4955483;28;20049;-84
2022/06/18 04:31:01;;;;;;;2.08;1.88;;;;;;;18.38;60.13;100985.97;4987093;28;20062;-84
2022/06/18 04:33:28;;;;;;;2.25;1.63;;;;;;;18.42;60.16;100985.84;4986254;28;20023;-84
2022/06/18 04:35:56;;;;;;;2.55;1.83;;;;;;;18.49;60.26;100989.97;4985944;28;20351;-85
2022/06/18 04:38:29;;;;;;;1.95;1.33;;;;;;;18.59;59.93;100992.28;4971007;28;20031;-85
2022/06/18 04:40:56;;;;;;;1.58;1.27;;;;;;;18.67;59.46;100980.47;4984884;28;20051;-85
2022/06/18 04:43:22;;;;;;;1.40;1.30;;;;;;;18.76;59.53;100981.03;4982898;28;20081;-85
2022/06/18 04:45:49;;;;;;;1.70;1.60;;;;;;;18.86;59.38;100982.41;4989534;28;20481;-84
2022/06/18 04:48:16;;;;;;;2.22;1.50;;;;;;;18.96;58.97;100986.47;4955991;28;20031;-84
2022/06/18 04:50:47;;;;;;;1.50;1.40;;;;;;;19.07;58.76;100988.72;4986305;28;20053;-84
2022/06/18 04:53:14;;;;;;;2.00;1.83;;;;;;;19.15;58.50;100977.78;4967046;28;20042;-85
2022/06/18 04:55:41;;;;;;;0.90;0.90;;;;;;;19.26;58.33;100975.59;4974903;28;20111;-85
2022/06/18 04:58:07;;;;;;;1.48;1.38;;;;;;;19.34;58.05;100983.25;4939301;28;20110;-85
2022/06/18 05:00:35;;;;;;;1.45;1.10;;;;;;;19.45;57.97;100977.47;4971851;28;20062;-85
2022/06/18 05:03:03;;;;;;;2.17;0.85;;;;;;;19.56;57.45;100977.06;4974014;28;20034;-85
2022/06/18 05:05:29;;;;;;;1.88;1.58;;;;;;;19.66;57.04;100975.75;4985703;28;20050;-85
2022/06/18 05:07:56;;;;;;;1.73;1.40;;;;;;;19.76;57.00;100970.91;4969495;28;20026;-86
2022/06/18 05:10:23;;;;;;;4.68;1.42;;;;;;;19.85;56.86;100977.66;4969971;28;20062;-86
2022/06/18 05:12:50;;;;;;;4.15;1.52;;;;;;;19.95;56.83;100979.00;4966873;28;20108;-86
2022/06/18 05:15:17;;;;;;;1.25;1.25;;;;;;;20.03;56.43;100983.97;4960512;28;20046;-87
2022/06/18 05:17:46;;;;;;;1.50;1.30;;;;;;;20.09;56.38;100975.72;4985061;28;20074;-86
2022/06/18 05:20:23;;;;;;;1.17;1.02;;;;;;;20.18;56.13;100964.72;4976221;28;20055;-88
2022/06/18 05:22:51;;;;;;;2.15;1.45;;;;;;;20.27;55.87;100964.31;4974307;28;20038;-86
2022/06/18 05:25:19;;;;;;;0.80;0.80;;;;;;;20.37;55.62;100966.53;4960134;28;20039;-85
2022/06/18 05:27:47;;;;;;;0.90;0.63;;;;;;;20.47;55.12;100962.53;4989294;28;20073;-86
2022/06/18 05:30:21;;;;;;;1.65;0.98;;;;;;;20.63;54.54;100962.69;4988402;28;20115;-83
2022/06/18 05:32:48;;;;;;;4.53;1.27;;;;;;;20.77;54.00;100965.59;4960047;28;20050;-87
2022/06/18 05:35:16;;;;;;;2.33;0.98;;;;;;;20.88;53.98;100962.44;4952408;28;20058;-84
2022/06/18 05:37:44;;;;;;;1.42;1.13;;;;;;;21.02;53.25;100969.75;4969017;28;20121;-85
2022/06/18 05:40:13;;;;;;;0.90;0.90;;;;;;;21.17;53.00;100956.66;4969762;28;20794;-84
2022/06/18 05:42:40;;;;;;;1.00;1.00;;;;;;;21.28;52.89;100968.50;4954572;28;20963;-82
2022/06/18 05:45:08;;;;;;;1.52;1.05;;;;;;;21.43;52.55;100966.91;4972178;28;20460;-83
2022/06/18 05:47:35;;;;;;;4.13;1.45;;;;;;;21.58;52.21;100964.44;4973530;28;20047;-83
2022/06/18 05:50:06;;;;;;;2.47;1.35;;;;;;;21.66;52.22;100959.56;4968915;28;20065;-83
2022/06/18 05:52:34;;;;;;;2.47;1.02;;;;;;;21.70;52.01;100953.16;4942039;28;20067;-85
2022/06/18 05:55:06;;;;;;;0.80;0.80;;;;;;;21.74;52.46;100957.38;4951113;28;20055;-82
2022/06/18 05:57:35;;;;;;;1.27;1.10;;;;;;;21.76;52.33;100958.16;4966271;28;20077;-85
2022/06/18 06:00:09;;;;;;;2.45;1.50;;;;;;;21.83;52.41;100960.53;4946123;28;20058;-82
2022/06/18 06:02:38;;;;;;;1.35;1.25;;;;;;;21.88;52.61;100958.50;4968395;28;20058;-84
2022/06/18 06:05:05;;;;;;;1.33;1.20;;;;;;;21.94;52.64;100963.47;4950707;28;20300;-85
2022/06/18 06:07:32;;;;;;;1.10;1.08;;;;;;;22.01;52.37;100961.38;4966859;28;20051;-83
2022/06/18 06:16:30;;;;;;;2.45;1.30;;;;;;;22.35;52.41;100951.59;4943364;28;20064;-82
2022/06/18 06:19:00;;;;;;;4.45;1.45;;;;;;;22.48;52.13;100952.69;4952965;28;20039;-82
2022/06/18 06:21:30;;;;;;;1.38;1.27;;;;;;;22.57;51.60;100952.19;4948722;28;20051;-84
2022/06/18 06:23:56;;;;;;;3.35;1.50;;;;;;;22.69;51.40;100949.78;4954304;28;20106;-82
2022/06/18 06:26:27;;;;;;;1.80;1.40;;;;;;;22.73;51.25;100946.00;4964271;28;20238;-82
2022/06/18 06:28:59;;;;;;;2.33;1.55;;;;;;;22.78;51.48;100946.59;4975006;28;20055;-85
2022/06/18 06:31:26;;;;;;;2.33;2.13;;;;;;;22.83;51.42;100947.22;4966722;28;20058;-84
2022/06/18 06:33:52;;;;;;;3.42;2.20;;;;;;;22.93;51.08;100936.84;4963619;28;20054;-84
2022/06/18 06:36:20;;;;;;;1.67;1.58;;;;;;;23.04;51.62;100946.97;4951590;28;21132;-83
2022/06/18 06:38:47;;;;;;;4.10;1.50;;;;;;;23.12;50.97;100950.03;4967991;28;20039;-85
2022/06/18 06:41:20;;;;;;;1.77;1.60;;;;;;;23.25;50.72;100951.06;4954112;28;20447;-84
2022/06/18 06:43:47;;;;;;;3.78;1.95;;;;;;;23.47;50.02;100941.84;4954466;28;20071;-83
2022/06/18 06:46:18;;;;;;;2.10;1.98;;;;;;;23.52;49.70;100949.56;4943644;28;20047;-84
2022/06/18 06:48:48;;;;;;;1.98;1.75;;;;;;;23.58;50.38;100949.19;4971844;28;20537;-84
2022/06/18 06:51:24;;;;;;;1.92;1.60;;;;;;;23.67;49.65;100950.47;4963904;28;20141;-84
2022/06/18 06:53:51;;;;;;;2.25;2.15;;;;;;;23.75;49.54;100950.88;4977242;28;20117;-84
2022/06/18 06:59:06;;;;;;;2.63;2.28;;;;;;;23.87;49.88;100946.59;4980799;28;20035;-82
2022/06/18 07:01:34;;;;;;;4.63;2.15;;;;;;;23.94;49.79;100939.97;4958258;28;20477;-83
2022/06/18 07:04:03;;;;;;;2.95;1.83;;;;;;;23.99;49.47;100942.34;4941747;28;20047;-83
2022/06/18 07:06:30;;;;;;;3.45;2.10;;;;;;;24.04;49.70;100932.22;4976884;28;20054;-84
2022/06/18 07:08:57;;;;;;;3.63;2.00;;;;;;;24.08;49.85;100931.97;4959498;28;20065;-83
2022/06/18 07:11:25;;;;;;;1.75;1.65;;;;;;;24.10;49.88;100931.88;4959536;28;20046;-82
2022/06/18 07:13:57;;;;;;;2.03;1.92;;;;;;;24.24;49.27;100933.69;4963604;28;20059;-84
2022/06/18 07:16:26;;;;;;;4.95;2.95;;;;;;;24.25;49.57;100933.59;4970212;28;20825;-84
2022/06/18 07:18:55;;;;;;;3.92;2.35;;;;;;;24.39;48.86;100938.09;4966450;28;20136;-82
2022/06/18 07:21:22;;;;;;;1.95;1.85;;;;;;;24.45;49.06;100944.88;4957747;28;20477;-86
2022/06/18 07:23:50;;;;;;;4.93;2.22;;;;;;;24.56;48.41;100942.38;4980716;28;20057;-86
2022/06/18 07:26:20;;;;;;;4.97;2.63;;;;;;;24.75;48.58;100936.72;4958718;28;20067;-85
2022/06/18 07:28:48;;;;;;;4.85;2.10;;;;;;;25.02;47.83;100937.75;4975029;28;20186;-84
2022/06/18 07:31:21;;;;;;;3.47;2.50;;;;;;;25.33;47.06;100933.88;4976344;28;20145;-83
2022/06/18 07:33:48;;;;;;;5.70;2.40;;;;;;;25.79;45.48;100935.28;4960698;28;20470;-83
2022/06/18 07:36:19;;;;;;;4.60;2.50;;;;;;;26.11;45.02;100928.69;4969337;28;20458;-84
2022/06/18 07:38:54;;;;;;;4.07;2.53;;;;;;;26.45;44.44;100935.19;4958712;28;20046;-84
2022/06/18 07:41:22;;;;;;;2.67;1.90;;;;;;;26.84;43.79;100935.13;4957892;28;20258;-86
2022/06/18 07:43:54;;;;;;;3.20;2.10;;;;;;;27.32;43.26;100932.44;4970127;28;20126;-83
2022/06/18 07:46:21;;;;;;;4.53;2.83;;;;;;;27.69;42.87;100931.50;4973815;28;20098;-86
2022/06/18 07:48:48;;;;;;;4.13;2.42;;;;;;;28.09;41.48;100933.81;4958401;28;20058;-83
2022/06/18 07:51:15;;;;;;;5.93;2.38;;;;;;;28.57;40.99;100926.47;4972842;28;20505;-85
2022/06/18 07:53:45;;;;;;;5.70;2.25;;;;;;;28.96;40.42;100930.44;4969575;28;20085;-84
2022/06/18 07:56:16;;;;;;;3.85;2.05;;;;;;;29.41;39.31;100921.34;4972389;28;20590;-84
2022/06/18 07:58:43;;;;;;;4.45;2.17;;;;;;;29.34;38.23;100915.63;4972349;28;20055;-86
2022/06/18 08:01:10;;;;;;;2.33;2.15;;;;;;;29.06;39.04;100919.78;4973369;28;20041;-84
2022/06/18 08:03:38;;;;;;;4.22;2.25;;;;;;;29.08;39.22;100917.78;4954889;28;20069;-82
2022/06/18 08:06:07;;;;;;;5.50;2.05;;;;;;;29.57;38.50;100920.06;4952580;28;20047;-85
2022/06/18 08:08:34;;;;;;;4.20;2.47;;;;;;;29.80;38.05;100920.78;4969060;28;20046;-84
2022/06/18 08:11:00;;;;;;;3.45;2.35;;;;;;;29.90;37.59;100915.47;4969017;28;20042;-82
2022/06/18 08:13:27;;;;;;;5.35;2.90;;;;;;;29.78;37.79;100918.22;4970032;28;20049;-84
2022/06/18 08:15:55;;;;;;;3.45;2.58;;;;;;;29.77;37.86;100915.66;4956504;28;20122;-83
2022/06/18 08:18:22;;;;;;;6.88;2.33;;;;;;;29.72;38.63;100918.75;4956243;28;20042;-83
2022/06/18 08:20:49;;;;;;;3.42;2.08;;;;;;;30.27;37.76;100923.03;4967556;28;20066;-83
2022/06/18 08:23:18;;;;;;;4.13;2.60;;;;;;;30.91;36.26;100919.13;4953259;28;20058;-84
2022/06/18 08:25:45;;;;;;;4.25;2.72;;;;;;;31.28;36.04;100926.56;4966544;28;21378;-84
2022/06/18 08:28:12;;;;;;;4.57;2.47;;;;;;;31.91;34.87;100921.69;4953580;28;20153;-82
2022/06/18 08:30:41;;;;;;;5.05;2.40;;;;;;;32.18;34.10;100915.50;4964780;28;20073;-84
2022/06/18 08:33:08;;;;;;;6.85;3.30;;;;;;;32.47;33.95;100904.50;4966534;28;20063;-83
2022/06/18 08:35:38;;;;;;;4.43;2.20;;;;;;;32.88;33.51;100917.69;4953929;28;20042;-84
2022/06/18 08:38:08;;;;;;;4.95;2.63;;;;;;;33.29;32.61;100909.13;4952497;28;20050;-83
2022/06/18 08:41:28;;;;;;;4.28;2.53;;;;;;;33.60;31.70;100912.25;4954524;28;20053;-85
2022/06/18 08:44:44;;;;;;;4.55;2.35;;;;;;;33.72;31.53;100918.25;4929410;28;20062;-85
2022/06/18 08:47:51;;;;;;;3.17;2.42;;;;;;;33.86;31.32;100910.56;4964313;28;20071;-86
2022/06/18 08:50:57;;;;;;;3.78;2.75;;;;;;;33.12;32.46;100914.34;4963691;28;20047;-85
2022/06/18 08:54:02;;;;;;;3.25;2.88;;;;;;;32.92;32.83;100910.09;4946258;28;20063;-83
2022/06/18 08:56:47;;;;;;;4.38;2.58;;;;;;;33.35;31.90;100919.34;4959381;28;20819;-83
2022/06/18 08:59:50;;;;;;;4.93;2.53;;;;;;;33.12;31.85;100921.66;4965605;28;20472;-85
2022/06/18 09:02:40;;;;;;;;;;;;;;;33.00;32.92;100926.47;4966467;28;21052;-85
2022/06/18 09:05:24;;;;;;;4.97;2.17;;;;;;;33.62;32.25;100912.94;4968583;28;20297;-86
2022/06/18 09:08:03;;;;;;;4.72;2.50;;;;;;;33.92;31.68;100921.66;4955994;28;20047;-85
2022/06/18 09:11:02;;;;;;;4.70;2.20;;;;;;;34.08;31.63;100915.47;4969650;28;20039;-84
2022/06/18 09:13:41;;;;;;;4.50;2.90;;;;;;;34.08;31.30;100920.03;4968594;28;20177;-88
2022/06/18 09:16:16;;;;;;;6.72;2.65;;;;;;;34.53;31.13;100921.63;4972413;28;20098;-85
2022/06/18 09:19:06;;;;;;;6.72;2.92;;;;;;;35.05;30.53;100923.28;4942172;28;20058;-82
2022/06/18 09:21:50;;;;;;;3.33;3.00;;;;;;;35.75;29.75;100918.38;4952742;28;20047;-87
2022/06/18 09:24:31;;;;;;;2.80;2.50;;;;;;;36.45;29.15;100922.28;4945917;28;20125;-86
2022/06/18 09:27:09;;;;;;;5.47;2.17;;;;;;;37.00;28.03;100912.28;4957204;28;20097;-86
2022/06/18 09:29:52;;;;;;;4.85;2.53;;;;;;;36.90;28.02;100911.66;4956583;28;20054;-84
2022/06/18 09:32:34;;;;;;;6.88;3.10;;;;;;;36.28;28.98;100904.28;4957560;28;20622;-85
2022/06/18 09:35:15;;;;;;;3.72;2.95;;;;;;;36.55;29.17;100911.16;4954263;28;20046;-87
2022/06/18 09:38:14;;;;;;;4.07;2.85;;;;;;;36.58;28.49;100914.41;4970101;28;20058;-87
2022/06/18 09:41:12;;;;;;;3.25;2.65;;;;;;;37.39;27.78;100910.44;4970661;28;20043;-85
2022/06/18 09:44:09;;;;;;;4.20;3.20;;;;;;;38.02;26.79;100908.28;4950353;28;20047;-85
2022/06/18 09:46:51;;;;;;;4.00;3.25;;;;;;;38.15;26.44;100902.16;4956943;28;20050;-84
2022/06/18 09:49:19;;;;;;;4.85;3.33;;;;;;;38.47;26.13;100908.25;4951789;28;20385;-86
2022/06/18 09:52:03;;;;;;;4.53;2.67;;;;;;;38.62;25.42;100912.84;4952542;28;20059;-86
2022/06/18 09:54:38;;;;;;;6.13;2.80;;;;;;;37.61;26.98;100908.69;4953751;28;20042;-83
2022/06/18 09:57:05;;;;;;;3.78;2.17;;;;;;;37.52;27.21;100918.00;4953250;28;20139;-88
2022/06/18 09:59:39;;;;;;;8.05;3.22;;;;;;;38.22;26.40;100918.66;4970024;28;20148;-85
2022/06/18 10:02:22;;;;;;;9.93;3.30;;;;;;;38.53;25.03;100909.38;4952170;28;20195;-86
2022/06/18 10:07:41;;;;;;;4.97;2.88;;;;;;;39.00;24.64;100916.22;4952157;28;20050;-87
2022/06/18 10:10:14;;;;;;;7.88;3.15;;;;;;;39.25;25.01;100918.59;4953275;28;20042;-84
2022/06/18 10:12:57;;;;;;;7.47;2.90;;;;;;;39.28;24.25;100925.56;4969508;28;21052;-85
2022/06/18 10:15:26;;;;;;;3.88;2.72;;;;;;;39.24;24.76;100916.06;4967826;28;20039;-88
2022/06/18 10:18:47;;;;;;;5.43;3.03;;;;;;;38.93;24.91;100909.84;4957735;28;20050;-88
2022/06/18 10:21:39;;;;;;;5.22;2.83;;;;;;;38.46;25.26;100908.44;4941107;28;20545;-88
2022/06/18 10:24:39;;;;;;;8.65;2.60;;;;;;;38.43;25.25;100906.13;4960008;28;20063;-86
2022/06/18 10:27:43;;;;;;;7.63;3.13;;;;;;;38.84;24.17;100900.06;4960081;28;20074;-86
2022/06/18 10:30:54;;;;;;;3.85;2.78;;;;;;;38.35;24.63;100896.97;4944388;28;20074;-88
2022/06/18 10:34:04;;;;;;;7.57;3.40;;;;;;;38.33;25.01;100895.47;4982030;28;20077;-87
2022/06/18 10:37:15;;;;;;;6.72;2.83;;;;;;;38.32;25.16;100891.06;4976221;28;20094;-88
2022/06/18 10:40:10;;;;;;;8.00;2.33;;;;;;;38.31;25.20;100895.66;4927844;28;20055;-85
2022/06/18 10:43:17;;;;;;;3.90;2.45;;;;;;;39.01;24.65;100896.03;4974922;28;20069;-84
2022/06/18 10:45:58;;;;;;;6.93;3.42;;;;;;;39.76;24.09;100895.59;4961040;28;20050;-83
2022/06/18 10:48:31;;;;;;;3.35;2.58;;;;;;;39.87;23.70;100896.97;4969127;28;20481;-83
2022/06/18 10:51:01;;;;;;;6.43;2.97;;;;;;;39.87;23.62;100902.44;4974346;28;21394;-84
2022/06/18 10:53:47;;;;;;;4.38;2.55;;;;;;;40.36;22.56;100892.34;4972314;28;20055;-85
2022/06/18 10:56:21;;;;;;;8.07;3.42;;;;;;;41.05;22.15;100892.34;4968972;28;20102;-83
2022/06/18 10:59:00;;;;;;;5.00;2.47;;;;;;;40.99;22.50;100894.03;4939695;28;20102;-82
2022/06/18 11:01:44;;;;;;;6.25;3.10;;;;;;;40.82;22.67;100894.41;4954091;28;20547;-84
2022/06/18 11:04:31;;;;;;;8.55;3.30;;;;;;;41.22;21.41;100892.78;4970187;28;20739;-85
2022/06/18 11:07:06;;;;;;;10.77;3.47;;;;;;;41.47;21.17;100893.84;4954144;28;20039;-85
2022/06/18 11:10:02;;;;;;;7.10;3.00;;;;;;;40.92;21.33;100891.25;4955665;28;20561;-86
2022/06/18 11:12:33;;;;;;;5.18;3.05;;;;;;;39.78;22.48;100890.78;4971096;28;20133;-84
2022/06/18 11:15:00;;;;;;;7.75;3.28;;;;;;;39.57;22.97;100893.56;4974193;28;20046;-85
2022/06/18 11:17:39;;;;;;;5.53;2.90;;;;;;;39.61;23.22;100892.09;4951995;28;20047;-84
2022/06/18 11:20:23;;;;;;;7.63;3.42;;;;;;;38.98;23.51;100884.63;4971158;28;20133;-86
2022/06/18 11:23:17;;;;;;;7.22;3.00;;;;;;;38.85;23.59;100894.41;4971209;28;20042;-86
2022/06/18 11:25:54;;;;;;;7.10;3.40;;;;;;;39.39;22.77;100894.91;4957542;28;20051;-85
2022/06/18 11:28:49;;;;;;;6.55;2.90;;;;;;;40.64;22.07;100881.28;4970266;28;20591;-85
2022/06/18 11:31:49;;;;;;;8.00;3.42;;;;;;;41.70;21.30;100883.47;4974150;28;20051;-87
2022/06/18 11:34:36;;;;;;;6.28;3.33;;;;;;;41.79;21.07;100880.25;4949016;28;20081;-86
2022/06/18 11:37:33;;;;;;;3.88;2.88;;;;;;;41.46;21.34;100883.06;4951688;28;20100;-88
2022/06/18 11:40:09;;;;;;;7.10;2.97;;;;;;;42.30;20.79;100886.88;4953938;28;20043;-84
2022/06/18 11:43:05;;;;;;;8.05;2.65;;;;;;;42.18;20.01;100877.59;4955197;28;20050;-86
2022/06/18 11:45:48;;;;;;;7.05;3.13;;;;;;;41.10;20.96;100871.44;4959598;28;20129;-84
2022/06/18 11:48:41;;;;;;;4.50;3.50;;;;;;;40.39;22.16;100883.72;4954401;28;20053;-88
2022/06/18 11:51:41;;;;;;;5.20;2.50;;;;;;;40.25;21.69;100876.47;4968705;28;20730;-86
2022/06/18 11:54:41;;;;;;;8.75;3.60;;;;;;;40.22;22.47;100880.47;4952478;28;20043;-86
2022/06/18 11:57:30;;;;;;;4.47;3.03;;;;;;;39.68;22.85;100885.66;4944319;28;20634;-84
2022/06/18 12:00:21;;;;;;;6.23;3.03;;;;;;;38.79;23.91;100870.56;4948060;28;20852;-87
2022/06/18 12:03:24;;;;;;;7.15;2.83;;;;;;;38.18;24.07;100860.75;4962882;28;20289;-87
2022/06/18 12:06:18;;;;;;;7.47;3.67;;;;;;;37.90;24.89;100860.59;4953333;28;20097;-85
2022/06/18 12:08:47;;;;;;;9.07;3.28;;;;;;;39.12;23.72;100860.97;4951288;28;20055;-87
2022/06/18 12:11:29;;;;;;;7.38;3.40;;;;;;;40.42;22.45;100852.25;4952616;28;20132;-88
2022/06/18 12:14:11;;;;;;;4.22;3.20;;;;;;;41.63;20.93;100856.84;4968323;28;20042;-86
2022/06/18 12:16:50;;;;;;;7.80;3.65;;;;;;;41.65;20.74;100854.69;4971942;28;20043;-86
2022/06/18 12:19:26;;;;;;;5.55;3.67;;;;;;;40.65;21.88;100857.41;4953222;28;20050;-89
2022/06/18 12:22:09;;;;;;;5.97;3.17;;;;;;;40.73;22.19;100842.66;4953085;28;20046;-84